createdAt,value
2019-02-06T00:01:19.523Z,85.81
2019-02-06T00:06:23.904Z,87.17
2019-02-06T00:11:28.568Z,87.60
2019-02-06T00:16:32.940Z,86.08
2019-02-06T00:21:37.356Z,85.95
2019-02-06T00:26:41.723Z,86.60
2019-02-06T00:31:46.127Z,85.88
2019-02-06T00:36:50.983Z,86.15
2019-02-06T00:41:55.388Z,86.60
2019-02-06T00:46:59.773Z,85.46
2019-02-06T00:52:04.143Z,85.38
2019-02-06T00:57:08.543Z,85.69
2019-02-06T01:02:13.131Z,85.58
2019-02-06T01:07:17.602Z,85.36
2019-02-06T01:12:22.959Z,84.78
2019-02-06T01:17:27.322Z,85.41
2019-02-06T01:22:34.074Z,85.96
2019-02-06T01:27:38.541Z,84.68
2019-02-06T01:32:42.935Z,86.30
2019-02-06T01:37:47.329Z,84.98
2019-02-06T01:42:51.716Z,86.61
2019-02-06T01:47:56.074Z,86.44
2019-02-06T01:53:00.499Z,85.62
2019-02-06T01:58:05.170Z,84.67
2019-02-06T02:03:09.816Z,83.78
2019-02-06T02:08:14.144Z,83.67
2019-02-06T02:13:18.499Z,85.75
2019-02-06T02:18:22.913Z,84.74
2019-02-06T02:23:27.454Z,84.38
2019-02-06T02:28:32.234Z,83.78
2019-02-06T02:33:36.599Z,85.45
2019-02-06T02:38:41.042Z,84.36
2019-02-06T02:43:45.696Z,85.24
2019-02-06T02:48:50.094Z,86.34
2019-02-06T02:53:54.440Z,85.35
2019-02-06T02:58:58.875Z,84.08
2019-02-06T03:04:04.904Z,84.67
2019-02-06T03:09:11.197Z,85.80
2019-02-06T03:14:15.727Z,84.18
2019-02-06T03:19:20.184Z,83.97
2019-02-06T03:24:24.560Z,85.00
2019-02-06T03:29:29.199Z,86.75
2019-02-06T03:34:34.046Z,85.22
2019-02-06T03:39:38.540Z,86.23
2019-02-06T03:44:43.521Z,84.51
2019-02-06T03:49:47.952Z,84.90
2019-02-06T03:54:52.422Z,84.34
2019-02-06T03:59:56.749Z,84.34
2019-02-06T04:05:01.131Z,85.24
2019-02-06T04:10:11.942Z,86.98
2019-02-06T04:15:16.352Z,86.87
2019-02-06T04:20:20.708Z,84.84
2019-02-06T04:25:25.055Z,85.65
2019-02-06T04:30:29.816Z,86.25
2019-02-06T04:35:34.265Z,86.77
2019-02-06T04:40:38.708Z,86.60
2019-02-06T04:45:43.117Z,87.50
2019-02-06T04:50:47.492Z,87.34
2019-02-06T04:55:51.897Z,87.58
2019-02-06T05:00:56.261Z,87.17
2019-02-06T05:06:00.695Z,89.27
2019-02-06T05:11:05.106Z,88.14
2019-02-06T05:16:09.485Z,87.77
2019-02-06T05:21:13.835Z,86.45
2019-02-06T05:26:18.381Z,86.05
2019-02-06T05:31:23.117Z,86.48
2019-02-06T05:36:27.475Z,86.16
2019-02-06T05:41:31.874Z,85.79
2019-02-06T05:46:36.208Z,85.63
2019-02-06T05:51:40.608Z,84.20
2019-02-06T05:56:44.979Z,84.20
2019-02-06T06:01:49.333Z,85.51
2019-02-06T06:06:53.923Z,84.81
2019-02-06T06:11:58.304Z,84.93
2019-02-06T06:17:02.811Z,86.08
2019-02-06T06:22:07.278Z,83.02
2019-02-06T06:27:11.732Z,83.02
2019-02-06T06:32:16.150Z,83.65
2019-02-06T06:37:21.287Z,84.08
2019-02-06T06:42:25.665Z,84.00
2019-02-06T06:47:30.058Z,84.87
2019-02-06T06:52:34.512Z,83.71
2019-02-06T06:57:39.011Z,83.97
2019-02-06T07:02:43.386Z,83.41
2019-02-06T07:07:47.807Z,83.31
2019-02-06T07:12:52.506Z,82.71
2019-02-06T07:17:56.887Z,81.71
2019-02-06T07:23:01.379Z,82.43
2019-02-06T07:28:05.774Z,82.06
2019-02-06T07:33:10.166Z,81.60
2019-02-06T07:38:23.861Z,81.18
2019-02-06T07:43:20.951Z,82.60
2019-02-06T07:48:25.379Z,82.37
2019-02-06T07:53:29.717Z,81.60
2019-02-06T07:58:34.063Z,79.88
2019-02-06T08:03:38.682Z,80.46
2019-02-06T08:08:43.055Z,80.39
2019-02-06T08:13:47.521Z,80.31
2019-02-06T08:18:51.885Z,79.27
2019-02-06T08:23:56.294Z,80.89
2019-02-06T08:29:00.686Z,79.02
2019-02-06T08:34:05.338Z,79.28
2019-02-06T08:39:09.766Z,78.79
2019-02-06T08:44:14.163Z,78.71
2019-02-06T08:49:18.535Z,77.56
2019-02-06T08:54:22.934Z,77.45
2019-02-06T08:59:27.334Z,77.15
2019-02-06T09:04:32.166Z,77.10
2019-02-06T09:09:36.552Z,76.11
2019-02-06T09:14:40.908Z,74.94
2019-02-06T09:19:45.292Z,76.05
2019-02-06T09:24:49.711Z,76.12
2019-02-06T09:29:54.540Z,75.16
2019-02-06T09:34:58.917Z,75.30
2019-02-06T09:40:09.345Z,74.22
2019-02-06T09:45:15.442Z,74.28
2019-02-06T09:50:28.241Z,74.69
2019-02-06T09:55:32.581Z,73.35
2019-02-06T10:00:38.341Z,72.67
2019-02-06T10:05:42.780Z,73.12
2019-02-06T10:10:47.271Z,73.14
2019-02-06T10:15:51.657Z,72.95
2019-02-06T10:20:56.107Z,72.73
2019-02-06T10:26:00.541Z,72.58
2019-02-06T10:31:04.992Z,71.91
2019-02-06T10:36:09.388Z,71.91
2019-02-06T10:41:13.835Z,71.50
2019-02-06T10:46:18.524Z,71.18
2019-02-06T10:51:22.902Z,70.45
2019-02-06T10:56:27.255Z,70.02
2019-02-06T11:01:31.878Z,71.11
2019-02-06T11:06:36.488Z,71.13
2019-02-06T11:11:41.003Z,71.10
2019-02-06T11:16:45.355Z,70.17
2019-02-06T11:21:49.726Z,69.77
2019-02-06T11:26:54.077Z,70.58
2019-02-06T11:31:58.796Z,70.71
2019-02-06T11:37:03.156Z,70.36
2019-02-06T11:42:08.785Z,70.17
2019-02-06T11:47:13.154Z,69.50
2019-02-06T11:52:17.537Z,69.26
2019-02-06T11:57:24.090Z,69.60
2019-02-06T12:02:37.067Z,69.60
2019-02-06T12:07:34.227Z,70.04
2019-02-06T12:12:38.626Z,70.37
2019-02-06T12:17:43.056Z,68.84
2019-02-06T12:22:47.435Z,69.34
2019-02-06T12:27:54.378Z,69.03
2019-02-06T12:32:59.277Z,69.86
2019-02-06T12:38:03.751Z,69.79
2019-02-06T12:43:10.520Z,69.86
2019-02-06T12:48:14.465Z,70.37
2019-02-06T12:53:18.850Z,69.91
2019-02-06T12:58:26.084Z,69.91
2019-02-06T13:03:29.343Z,69.93
2019-02-06T13:08:33.723Z,70.65
2019-02-06T13:13:38.155Z,70.58
2019-02-06T13:18:42.493Z,70.98
2019-02-06T13:23:49.487Z,71.31
2019-02-06T13:28:52.962Z,70.90
2019-02-06T13:33:57.316Z,70.81
2019-02-06T13:39:01.688Z,71.19
2019-02-06T13:44:07.738Z,72.00
2019-02-06T13:49:12.472Z,70.67
2019-02-06T13:54:16.996Z,71.53
2019-02-06T13:59:21.398Z,71.36
2019-02-06T14:04:25.776Z,71.60
2019-02-06T14:09:30.201Z,71.97
2019-02-06T14:14:34.554Z,71.67
2019-02-06T14:19:38.953Z,71.67
2019-02-06T14:24:45.159Z,71.77
2019-02-06T14:30:01.617Z,72.06
2019-02-06T14:35:30.467Z,72.43
2019-02-06T14:40:43.517Z,72.21
2019-02-06T14:45:53.940Z,73.13
2019-02-06T14:51:32.981Z,71.68
2019-02-06T14:56:49.377Z,72.02
2019-02-06T15:02:02.884Z,72.62
2019-02-06T15:07:28.330Z,72.46
2019-02-06T15:12:41.533Z,72.21
2019-02-06T15:18:14.872Z,73.03
2019-02-06T15:23:33.164Z,72.99
2019-02-06T15:28:49.666Z,72.67
2019-02-06T15:34:18.290Z,74.09
2019-02-06T15:39:37.452Z,74.13
2019-02-06T15:45:00.220Z,74.30
2019-02-06T15:50:26.739Z,74.27
2019-02-06T15:55:46.779Z,74.46
2019-02-06T16:00:57.034Z,74.51
2019-02-06T16:06:24.483Z,74.92
2019-02-06T16:11:41.924Z,75.03
2019-02-06T16:17:12.768Z,75.48
2019-02-06T16:22:39.652Z,75.58
2019-02-06T16:28:07.700Z,75.59
2019-02-06T16:33:31.699Z,76.03
2019-02-06T16:38:44.948Z,76.16
2019-02-06T16:44:11.844Z,77.88
2019-02-06T16:49:19.464Z,76.02
2019-02-06T16:54:32.814Z,76.58
2019-02-06T16:59:45.933Z,76.91
2019-02-06T17:05:08.834Z,77.27
2019-02-06T17:10:21.874Z,78.67
2019-02-06T17:15:38.343Z,76.85
2019-02-06T17:21:05.580Z,76.96
2019-02-06T17:26:22.242Z,76.60
2019-02-06T17:31:32.562Z,77.30
2019-02-06T17:36:49.370Z,76.71
2019-02-06T17:42:15.904Z,76.20
2019-02-06T17:47:41.932Z,76.20
2019-02-06T17:53:05.632Z,76.36
2019-02-06T17:58:10.090Z,77.61
2019-02-06T18:03:17.087Z,76.55
2019-02-06T18:08:21.917Z,77.46
2019-02-06T18:13:26.265Z,76.91
2019-02-06T18:18:30.614Z,77.22
2019-02-06T18:23:34.959Z,78.40
2019-02-06T18:28:39.695Z,77.53
2019-02-06T18:33:44.743Z,77.35
2019-02-06T18:38:51.023Z,77.91
2019-02-06T18:43:55.551Z,78.78
2019-02-06T18:49:00.011Z,77.68
2019-02-06T18:54:06.109Z,78.38
2019-02-06T18:59:10.554Z,78.69
2019-02-06T19:04:14.999Z,78.21
2019-02-06T19:09:19.533Z,79.40
2019-02-06T19:14:23.909Z,77.90
2019-02-06T19:19:28.269Z,78.97
2019-02-06T19:24:32.796Z,79.70
2019-02-06T19:29:37.260Z,78.99
2019-02-06T19:34:41.811Z,79.62
2019-02-06T19:39:46.176Z,78.75
2019-02-06T19:44:50.629Z,80.04
2019-02-06T19:49:55.265Z,80.12
2019-02-06T19:54:59.771Z,79.43
2019-02-06T20:00:10.402Z,79.13
2019-02-06T20:05:16.966Z,80.49
2019-02-06T20:10:32.994Z,79.38
2019-02-06T20:15:38.442Z,80.19
2019-02-06T20:20:42.822Z,80.13
2019-02-06T20:25:47.254Z,79.12
2019-02-06T20:30:51.659Z,79.74
2019-02-06T20:35:57.816Z,79.58
2019-02-06T20:41:02.198Z,80.23
2019-02-06T20:46:06.571Z,79.48
2019-02-06T20:51:11.150Z,78.63
2019-02-06T20:56:15.503Z,79.91
2019-02-06T21:01:19.871Z,79.36
2019-02-06T21:06:24.294Z,79.52
2019-02-06T21:11:28.678Z,79.97
2019-02-06T21:16:33.100Z,79.57
2019-02-06T21:21:37.511Z,79.51
2019-02-06T21:26:44.429Z,79.58
2019-02-06T21:31:48.309Z,79.92
2019-02-06T21:36:53.235Z,80.82
2019-02-06T21:41:57.591Z,80.92
2019-02-06T21:47:01.979Z,79.82
2019-02-06T21:52:06.783Z,80.22
2019-02-06T21:57:11.246Z,81.45
2019-02-06T22:02:15.625Z,81.00
2019-02-06T22:07:20.024Z,79.44
2019-02-06T22:12:24.397Z,80.04
2019-02-06T22:17:28.823Z,80.79
2019-02-06T22:22:33.179Z,80.33
2019-02-06T22:27:38.927Z,80.01
2019-02-06T22:32:43.325Z,80.76
2019-02-06T22:37:47.723Z,80.07
2019-02-06T22:42:52.369Z,80.58
2019-02-06T22:47:56.818Z,79.46
2019-02-06T22:53:02.848Z,80.40
2019-02-06T22:58:07.271Z,81.44
2019-02-06T23:03:11.794Z,81.25
2019-02-06T23:08:16.239Z,81.53
2019-02-06T23:13:20.655Z,80.87
2019-02-06T23:18:25.148Z,79.93
2019-02-06T23:23:29.582Z,82.09
2019-02-06T23:28:33.973Z,81.81
2019-02-06T23:33:38.328Z,81.81
2019-02-06T23:38:42.742Z,81.37
2019-02-06T23:43:47.142Z,80.98
2019-02-06T23:48:51.491Z,80.54
2019-02-06T23:53:55.897Z,81.02
2019-02-06T23:59:00.315Z,81.74
